sensor_id;sensor_type;location;lat;lon;timestamp;pressure;altitude;pressure_sealevel;temperature;humidity
70954;BME280;58618;47.490;8.736;2023-01-10T00:00:28;96431.06;;;2.66;100.00
70954;BME280;58618;47.490;8.736;2023-01-10T00:02:59;96438.00;;;2.70;100.00
70954;BME280;58618;47.490;8.736;2023-01-10T00:05:26;96436.50;;;2.69;100.00
70954;BME280;58618;47.490;8.736;2023-01-10T00:07:53;96442.69;;;2.73;100.00
70954;BME280;58618;47.490;8.736;2023-01-10T00:10:22;96445.75;;;2.75;100.00
70954;BME280;58618;47.490;8.736;2023-01-10T00:12:49;96440.66;;;2.75;100.00
70954;BME280;58618;47.490;8.736;2023-01-10T00:15:45;96441.91;;;2.73;100.00
70954;BME280;58618;47.490;8.736;2023-01-10T00:18:12;96445.44;;;2.83;100.00
70954;BME280;58618;47.490;8.736;2023-01-10T00:20:39;96452.59;;;2.86;100.00
70954;BME280;58618;47.490;8.736;2023-01-10T00:23:07;96434.16;;;2.68;100.00
70954;BME280;58618;47.490;8.736;2023-01-10T00:25:36;96452.41;;;2.76;100.00
70954;BME280;58618;47.490;8.736;2023-01-10T00:28:03;96467.56;;;2.83;100.00
70954;BME280;58618;47.490;8.736;2023-01-10T00:30:40;96467.69;;;2.76;100.00
70954;BME280;58618;47.490;8.736;2023-01-10T00:33:07;96470.78;;;2.78;100.00
70954;BME280;58618;47.490;8.736;2023-01-10T00:35:35;96461.38;;;2.67;100.00
70954;BME280;58618;47.490;8.736;2023-01-10T00:38:02;96470.59;;;2.68;100.00
70954;BME280;58618;47.490;8.736;2023-01-10T00:40:31;96481.09;;;2.72;100.00
70954;BME280;58618;47.490;8.736;2023-01-10T00:43:00;96487.06;;;2.77;100.00
70954;BME280;58618;47.490;8.736;2023-01-10T00:45:46;96493.25;;;2.81;100.00
70954;BME280;58618;47.490;8.736;2023-01-10T00:48:14;96498.13;;;2.83;100.00
70954;BME280;58618;47.490;8.736;2023-01-10T00:50:41;96503.44;;;2.81;100.00
70954;BME280;58618;47.490;8.736;2023-01-10T00:53:09;96508.31;;;2.83;100.00
70954;BME280;58618;47.490;8.736;2023-01-10T00:55:36;96520.38;;;2.87;100.00
70954;BME280;58618;47.490;8.736;2023-01-10T00:58:05;96527.34;;;2.92;100.00
70954;BME280;58618;47.490;8.736;2023-01-10T01:00:33;96531.66;;;2.91;100.00
70954;BME280;58618;47.490;8.736;2023-01-10T01:03:00;96525.47;;;2.87;100.00
70954;BME280;58618;47.490;8.736;2023-01-10T01:05:27;96534.31;;;2.96;100.00
70954;BME280;58618;47.490;8.736;2023-01-10T01:07:54;96534.78;;;2.93;100.00
70954;BME280;58618;47.490;8.736;2023-01-10T01:10:21;96510.44;;;2.74;100.00
70954;BME280;58618;47.490;8.736;2023-01-10T01:12:56;96541.84;;;2.91;100.00
70954;BME280;58618;47.490;8.736;2023-01-10T01:15:26;96562.91;;;2.98;100.00
70954;BME280;58618;47.490;8.736;2023-01-10T01:17:54;96558.91;;;3.03;100.00
70954;BME280;58618;47.490;8.736;2023-01-10T01:20:21;96561.34;;;2.97;100.00
70954;BME280;58618;47.490;8.736;2023-01-10T01:22:48;96568.78;;;2.99;100.00
70954;BME280;58618;47.490;8.736;2023-01-10T01:25:15;96580.53;;;3.00;100.00
70954;BME280;58618;47.490;8.736;2023-01-10T01:27:42;96591.94;;;2.97;100.00
70954;BME280;58618;47.490;8.736;2023-01-10T01:30:10;96601.34;;;2.97;100.00
70954;BME280;58618;47.490;8.736;2023-01-10T01:32:39;96607.44;;;3.08;100.00
70954;BME280;58618;47.490;8.736;2023-01-10T01:35:07;96623.19;;;3.05;100.00
70954;BME280;58618;47.490;8.736;2023-01-10T01:37:35;96627.81;;;3.08;100.00
70954;BME280;58618;47.490;8.736;2023-01-10T01:40:02;96631.03;;;3.15;100.00
70954;BME280;58618;47.490;8.736;2023-01-10T01:42:31;96640.91;;;3.11;100.00
70954;BME280;58618;47.490;8.736;2023-01-10T01:45:28;96647.31;;;3.14;100.00
70954;BME280;58618;47.490;8.736;2023-01-10T01:48:01;96657.50;;;3.14;100.00
70954;BME280;58618;47.490;8.736;2023-01-10T01:50:33;96639.56;;;3.09;100.00
70954;BME280;58618;47.490;8.736;2023-01-10T01:53:06;96648.78;;;3.21;100.00
70954;BME280;58618;47.490;8.736;2023-01-10T01:55:35;96656.75;;;3.25;100.00
70954;BME280;58618;47.490;8.736;2023-01-10T01:58:08;96658.19;;;3.21;100.00
70954;BME280;58618;47.490;8.736;2023-01-10T02:00:40;96671.03;;;3.26;100.00
70954;BME280;58618;47.490;8.736;2023-01-10T02:03:10;96669.59;;;3.30;100.00
70954;BME280;58618;47.490;8.736;2023-01-10T02:05:39;96678.59;;;3.32;100.00
70954;BME280;58618;47.490;8.736;2023-01-10T02:08:08;96685.78;;;3.35;100.00
70954;BME280;58618;47.490;8.736;2023-01-10T02:10:40;96687.00;;;3.33;100.00
70954;BME280;58618;47.490;8.736;2023-01-10T02:13:11;96678.59;;;3.32;100.00
70954;BME280;58618;47.490;8.736;2023-01-10T02:15:40;96677.81;;;3.32;100.00
70954;BME280;58618;47.490;8.736;2023-01-10T02:18:11;96687.00;;;3.33;100.00
70954;BME280;58618;47.490;8.736;2023-01-10T02:20:48;96696.53;;;3.26;100.00
70954;BME280;58618;47.490;8.736;2023-01-10T02:23:38;96691.84;;;3.23;100.00
70954;BME280;58618;47.490;8.736;2023-01-10T02:32:21;96719.69;;;3.24;100.00
70954;BME280;58618;47.490;8.736;2023-01-10T02:34:59;96718.47;;;3.27;100.00
70954;BME280;58618;47.490;8.736;2023-01-10T02:37:37;96730.09;;;3.34;100.00
70954;BME280;58618;47.490;8.736;2023-01-10T02:40:13;96735.56;;;3.38;100.00
70954;BME280;58618;47.490;8.736;2023-01-10T02:42:48;96738.13;;;3.38;100.00
70954;BME280;58618;47.490;8.736;2023-01-10T02:45:23;96738.31;;;3.36;100.00
70954;BME280;58618;47.490;8.736;2023-01-10T02:47:54;96746.28;;;3.40;100.00
70954;BME280;58618;47.490;8.736;2023-01-10T02:50:28;96739.53;;;3.34;100.00
70954;BME280;58618;47.490;8.736;2023-01-10T02:52:58;96753.28;;;3.33;100.00
70954;BME280;58618;47.490;8.736;2023-01-10T02:55:36;96756.84;;;3.32;100.00
70954;BME280;58618;47.490;8.736;2023-01-10T02:58:12;96758.25;;;3.28;100.00
70954;BME280;58618;47.490;8.736;2023-01-10T03:00:50;96759.13;;;3.33;100.00
70954;BME280;58618;47.490;8.736;2023-01-10T03:03:33;96781.88;;;3.35;100.00
70954;BME280;58618;47.490;8.736;2023-01-10T03:06:08;96770.56;;;3.31;100.00
70954;BME280;58618;47.490;8.736;2023-01-10T03:08:42;96782.31;;;3.32;100.00
70954;BME280;58618;47.490;8.736;2023-01-10T03:11:14;96785.31;;;3.40;100.00
70954;BME280;58618;47.490;8.736;2023-01-10T03:14:02;96794.75;;;3.40;100.00
70954;BME280;58618;47.490;8.736;2023-01-10T03:16:32;96794.53;;;3.42;100.00
70954;BME280;58618;47.490;8.736;2023-01-10T03:19:06;96803.94;;;3.41;100.00
70954;BME280;58618;47.490;8.736;2023-01-10T03:21:35;96804.59;;;3.36;100.00
70954;BME280;58618;47.490;8.736;2023-01-10T03:24:07;96813.16;;;3.42;100.00
70954;BME280;58618;47.490;8.736;2023-01-10T03:26:42;96816.25;;;3.44;100.00
70954;BME280;58618;47.490;8.736;2023-01-10T03:29:14;96808.38;;;3.46;100.00
70954;BME280;58618;47.490;8.736;2023-01-10T03:31:46;96822.78;;;3.40;100.00
70954;BME280;58618;47.490;8.736;2023-01-10T03:34:17;96842.31;;;3.46;100.00
70954;BME280;58618;47.490;8.736;2023-01-10T03:36:49;96844.41;;;3.49;100.00
70954;BME280;58618;47.490;8.736;2023-01-10T03:39:22;96839.06;;;3.39;100.00
70954;BME280;58618;47.490;8.736;2023-01-10T03:42:01;96848.84;;;3.42;100.00
70954;BME280;58618;47.490;8.736;2023-01-10T03:44:34;96845.06;;;3.33;100.00
70954;BME280;58618;47.490;8.736;2023-01-10T03:47:12;96860.00;;;3.29;100.00
70954;BME280;58618;47.490;8.736;2023-01-10T03:49:44;96857.53;;;3.23;100.00
70954;BME280;58618;47.490;8.736;2023-01-10T03:52:14;96864.78;;;3.08;100.00
70954;BME280;58618;47.490;8.736;2023-01-10T03:54:43;96879.09;;;3.09;100.00
70954;BME280;58618;47.490;8.736;2023-01-10T03:57:18;96880.38;;;3.00;100.00
70954;BME280;58618;47.490;8.736;2023-01-10T03:59:46;96883.91;;;2.98;100.00
70954;BME280;58618;47.490;8.736;2023-01-10T04:02:14;96885.16;;;2.96;100.00
70954;BME280;58618;47.490;8.736;2023-01-10T04:04:43;96893.66;;;3.02;100.00
70954;BME280;58618;47.490;8.736;2023-01-10T04:07:10;96908.09;;;3.08;100.00
70954;BME280;58618;47.490;8.736;2023-01-10T04:09:38;96894.81;;;3.06;100.00
70954;BME280;58618;47.490;8.736;2023-01-10T04:12:05;96896.38;;;3.07;100.00
70954;BME280;58618;47.490;8.736;2023-01-10T04:14:32;96911.03;;;3.11;100.00
70954;BME280;58618;47.490;8.736;2023-01-10T04:16:59;96916.97;;;3.05;100.00
70954;BME280;58618;47.490;8.736;2023-01-10T04:19:26;96909.47;;;3.10;100.00
70954;BME280;58618;47.490;8.736;2023-01-10T04:21:55;96907.75;;;3.04;100.00
70954;BME280;58618;47.490;8.736;2023-01-10T04:24:23;96919.44;;;3.12;100.00
70954;BME280;58618;47.490;8.736;2023-01-10T04:26:51;96912.09;;;3.04;100.00
70954;BME280;58618;47.490;8.736;2023-01-10T04:29:18;96923.41;;;3.08;100.00
70954;BME280;58618;47.490;8.736;2023-01-10T04:31:45;96934.28;;;3.15;100.00
70954;BME280;58618;47.490;8.736;2023-01-10T04:34:12;96937.41;;;3.17;100.00
70954;BME280;58618;47.490;8.736;2023-01-10T04:36:39;96941.38;;;3.13;100.00
70954;BME280;58618;47.490;8.736;2023-01-10T04:39:08;96953.13;;;3.14;100.00
70954;BME280;58618;47.490;8.736;2023-01-10T04:41:35;96955.53;;;3.09;100.00
70954;BME280;58618;47.490;8.736;2023-01-10T04:44:02;96956.38;;;3.03;100.00
70954;BME280;58618;47.490;8.736;2023-01-10T04:46:30;96970.97;;;2.95;100.00
70954;BME280;58618;47.490;8.736;2023-01-10T04:48:58;96967.28;;;2.91;100.00
70954;BME280;58618;47.490;8.736;2023-01-10T04:51:26;96972.16;;;2.93;100.00
70954;BME280;58618;47.490;8.736;2023-01-10T04:53:54;96974.06;;;2.97;100.00
70954;BME280;58618;47.490;8.736;2023-01-10T04:56:22;96988.88;;;3.07;100.00
70954;BME280;58618;47.490;8.736;2023-01-10T04:58:49;96982.66;;;3.03;100.00
70954;BME280;58618;47.490;8.736;2023-01-10T05:01:19;96996.66;;;3.12;100.00
70954;BME280;58618;47.490;8.736;2023-01-10T05:03:47;96990.66;;;3.07;100.00
70954;BME280;58618;47.490;8.736;2023-01-10T05:06:15;96998.22;;;3.13;100.00
70954;BME280;58618;47.490;8.736;2023-01-10T05:08:43;97012.66;;;3.19;100.00
70954;BME280;58618;47.490;8.736;2023-01-10T05:11:10;97000.13;;;3.18;100.00
70954;BME280;58618;47.490;8.736;2023-01-10T05:13:40;97011.03;;;3.25;100.00
70954;BME280;58618;47.490;8.736;2023-01-10T05:16:07;97025.88;;;3.28;100.00
70954;BME280;58618;47.490;8.736;2023-01-10T05:18:34;97023.91;;;3.30;100.00
70954;BME280;58618;47.490;8.736;2023-01-10T05:21:03;97033.72;;;3.33;100.00
70954;BME280;58618;47.490;8.736;2023-01-10T05:23:30;97033.34;;;3.29;100.00
70954;BME280;58618;47.490;8.736;2023-01-10T05:26:04;97036.66;;;3.30;100.00
70954;BME280;58618;47.490;8.736;2023-01-10T05:28:32;97040.56;;;3.32;100.00
70954;BME280;58618;47.490;8.736;2023-01-10T05:31:00;97053.66;;;3.36;100.00
70954;BME280;58618;47.490;8.736;2023-01-10T05:33:28;97047.97;;;3.34;100.00
70954;BME280;58618;47.490;8.736;2023-01-10T05:35:55;97059.19;;;3.33;100.00
70954;BME280;58618;47.490;8.736;2023-01-10T05:38:22;97053.72;;;3.29;100.00
70954;BME280;58618;47.490;8.736;2023-01-10T05:40:53;97055.59;;;3.22;100.00
70954;BME280;58618;47.490;8.736;2023-01-10T05:43:20;97061.72;;;3.15;100.00
70954;BME280;58618;47.490;8.736;2023-01-10T05:45:47;97062.44;;;3.22;100.00
70954;BME280;58618;47.490;8.736;2023-01-10T05:48:16;97070.25;;;3.27;100.00
70954;BME280;58618;47.490;8.736;2023-01-10T05:50:44;97063.97;;;3.23;100.00
70954;BME280;58618;47.490;8.736;2023-01-10T05:53:11;97072.66;;;3.22;100.00
70954;BME280;58618;47.490;8.736;2023-01-10T05:55:38;97075.75;;;3.24;100.00
70954;BME280;58618;47.490;8.736;2023-01-10T05:58:05;97083.53;;;3.29;100.00
70954;BME280;58618;47.490;8.736;2023-01-10T06:00:33;97086.22;;;3.34;100.00
70954;BME280;58618;47.490;8.736;2023-01-10T06:03:00;97095.28;;;3.30;100.00
70954;BME280;58618;47.490;8.736;2023-01-10T06:05:28;97104.50;;;3.31;100.00
70954;BME280;58618;47.490;8.736;2023-01-10T06:07:56;97103.94;;;3.29;100.00
70954;BME280;58618;47.490;8.736;2023-01-10T06:10:24;97106.28;;;3.30;100.00
70954;BME280;58618;47.490;8.736;2023-01-10T06:12:54;97107.47;;;3.28;100.00
70954;BME280;58618;47.490;8.736;2023-01-10T06:15:21;97104.31;;;3.32;100.00
70954;BME280;58618;47.490;8.736;2023-01-10T06:17:49;97119.13;;;3.42;100.00
70954;BME280;58618;47.490;8.736;2023-01-10T06:20:16;97119.94;;;3.36;100.00
70954;BME280;58618;47.490;8.736;2023-01-10T06:22:45;97125.16;;;3.23;100.00
70954;BME280;58618;47.490;8.736;2023-01-10T06:25:12;97125.88;;;3.30;100.00
70954;BME280;58618;47.490;8.736;2023-01-10T06:27:40;97134.50;;;3.29;100.00
70954;BME280;58618;47.490;8.736;2023-01-10T06:30:09;97130.69;;;3.20;100.00
70954;BME280;58618;47.490;8.736;2023-01-10T06:32:37;97146.34;;;3.23;100.00
70954;BME280;58618;47.490;8.736;2023-01-10T06:35:05;97148.44;;;3.08;100.00
70954;BME280;58618;47.490;8.736;2023-01-10T06:37:33;97147.13;;;3.24;100.00
70954;BME280;58618;47.490;8.736;2023-01-10T06:40:02;97150.59;;;3.29;100.00
70954;BME280;58618;47.490;8.736;2023-01-10T06:42:29;97161.16;;;3.33;100.00
70954;BME280;58618;47.490;8.736;2023-01-10T06:44:56;97156.28;;;3.31;100.00
70954;BME280;58618;47.490;8.736;2023-01-10T06:47:23;97154.22;;;3.22;100.00
70954;BME280;58618;47.490;8.736;2023-01-10T06:49:50;97151.66;;;3.22;100.00
70954;BME280;58618;47.490;8.736;2023-01-10T06:52:18;97160.09;;;3.22;100.00
70954;BME280;58618;47.490;8.736;2023-01-10T06:54:45;97167.50;;;3.24;100.00
70954;BME280;58618;47.490;8.736;2023-01-10T06:57:14;97168.63;;;3.28;100.00
70954;BME280;58618;47.490;8.736;2023-01-10T06:59:41;97167.50;;;3.24;100.00
70954;BME280;58618;47.490;8.736;2023-01-10T07:02:13;97177.69;;;3.24;100.00
70954;BME280;58618;47.490;8.736;2023-01-10T07:04:40;97171.47;;;3.20;100.00
70954;BME280;58618;47.490;8.736;2023-01-10T07:07:08;97178.13;;;3.21;100.00
70954;BME280;58618;47.490;8.736;2023-01-10T07:09:35;97180.94;;;3.13;100.00
70954;BME280;58618;47.490;8.736;2023-01-10T07:12:02;97178.13;;;3.21;100.00
70954;BME280;58618;47.490;8.736;2023-01-10T07:14:31;97189.59;;;3.12;100.00
70954;BME280;58618;47.490;8.736;2023-01-10T07:16:58;97199.50;;;3.20;100.00
70954;BME280;58618;47.490;8.736;2023-01-10T07:19:25;97206.00;;;3.16;100.00
70954;BME280;58618;47.490;8.736;2023-01-10T07:21:53;97229.09;;;3.21;100.00
70954;BME280;58618;47.490;8.736;2023-01-10T07:24:20;97219.38;;;3.11;100.00
70954;BME280;58618;47.490;8.736;2023-01-10T07:26:47;97210.53;;;3.14;100.00
70954;BME280;58618;47.490;8.736;2023-01-10T07:29:14;97208.97;;;3.13;100.00
70954;BME280;58618;47.490;8.736;2023-01-10T07:31:42;97195.81;;;3.16;100.00
70954;BME280;58618;47.490;8.736;2023-01-10T07:34:10;97206.00;;;3.16;100.00
70954;BME280;58618;47.490;8.736;2023-01-10T07:36:37;97211.44;;;3.26;100.00
70954;BME280;58618;47.490;8.736;2023-01-10T07:39:04;97225.75;;;3.27;100.00
70954;BME280;58618;47.490;8.736;2023-01-10T07:41:31;97228.28;;;3.27;100.00
70954;BME280;58618;47.490;8.736;2023-01-10T07:43:59;97234.56;;;3.24;100.00
70954;BME280;58618;47.490;8.736;2023-01-10T07:46:26;97251.78;;;3.29;100.00
70954;BME280;58618;47.490;8.736;2023-01-10T07:48:54;97250.56;;;3.38;100.00
70954;BME280;58618;47.490;8.736;2023-01-10T07:51:22;97247.16;;;3.44;100.00
70954;BME280;58618;47.490;8.736;2023-01-10T07:53:49;97238.16;;;3.42;100.00
70954;BME280;58618;47.490;8.736;2023-01-10T07:56:16;97256.94;;;3.47;100.00
70954;BME280;58618;47.490;8.736;2023-01-10T07:58:46;97269.72;;;3.47;100.00
70954;BME280;58618;47.490;8.736;2023-01-10T08:01:14;97272.22;;;3.54;100.00
70954;BME280;58618;47.490;8.736;2023-01-10T08:03:41;97271.97;;;3.55;100.00
70954;BME280;58618;47.490;8.736;2023-01-10T08:06:10;97270.50;;;3.48;100.00
70954;BME280;58618;47.490;8.736;2023-01-10T08:08:38;97267.31;;;3.52;100.00
70954;BME280;58618;47.490;8.736;2023-01-10T08:11:05;97278.25;;;3.59;100.00
70954;BME280;58618;47.490;8.736;2023-01-10T08:13:33;97281.34;;;3.61;100.00
70954;BME280;58618;47.490;8.736;2023-01-10T08:16:03;97278.97;;;3.66;100.00
70954;BME280;58618;47.490;8.736;2023-01-10T08:18:31;97261.25;;;3.71;100.00
70954;BME280;58618;47.490;8.736;2023-01-10T08:20:58;97281.25;;;3.74;100.00
70954;BME280;58618;47.490;8.736;2023-01-10T08:23:27;97274.28;;;3.63;100.00
70954;BME280;58618;47.490;8.736;2023-01-10T08:25:56;97294.56;;;3.76;100.00
70954;BME280;58618;47.490;8.736;2023-01-10T08:28:24;97298.28;;;3.80;100.00
70954;BME280;58618;47.490;8.736;2023-01-10T08:30:51;97294.16;;;3.79;100.00
70954;BME280;58618;47.490;8.736;2023-01-10T08:33:21;97294.16;;;3.79;100.00
70954;BME280;58618;47.490;8.736;2023-01-10T08:35:49;97307.06;;;3.85;100.00
70954;BME280;58618;47.490;8.736;2023-01-10T08:38:16;97320.38;;;3.87;100.00
70954;BME280;58618;47.490;8.736;2023-01-10T08:40:45;97315.50;;;3.85;100.00
70954;BME280;58618;47.490;8.736;2023-01-10T08:43:12;97305.81;;;3.94;100.00
70954;BME280;58618;47.490;8.736;2023-01-10T08:45:40;97311.06;;;3.99;100.00
70954;BME280;58618;47.490;8.736;2023-01-10T08:48:08;97312.34;;;4.08;100.00
70954;BME280;58618;47.490;8.736;2023-01-10T08:50:36;97311.56;;;4.07;100.00
70954;BME280;58618;47.490;8.736;2023-01-10T08:53:03;97317.34;;;4.21;100.00
70954;BME280;58618;47.490;8.736;2023-01-10T08:55:31;97313.50;;;4.30;100.00
70954;BME280;58618;47.490;8.736;2023-01-10T08:58:01;97323.47;;;4.38;100.00
70954;BME280;58618;47.490;8.736;2023-01-10T09:00:29;97332.47;;;4.41;100.00
70954;BME280;58618;47.490;8.736;2023-01-10T09:02:57;97326.84;;;4.50;100.00
70954;BME280;58618;47.490;8.736;2023-01-10T09:05:24;97330.41;;;4.49;100.00
70954;BME280;58618;47.490;8.736;2023-01-10T09:07:57;97332.25;;;4.42;100.00
70954;BME280;58618;47.490;8.736;2023-01-10T09:10:24;97339.06;;;4.48;100.00
70954;BME280;58618;47.490;8.736;2023-01-10T09:12:51;97333.53;;;4.51;100.00
70954;BME280;58618;47.490;8.736;2023-01-10T09:15:24;97349.97;;;4.55;100.00
70954;BME280;58618;47.490;8.736;2023-01-10T09:17:56;97352.53;;;4.55;100.00
70954;BME280;58618;47.490;8.736;2023-01-10T09:20:26;97360.56;;;4.59;100.00
70954;BME280;58618;47.490;8.736;2023-01-10T09:22:54;97350.75;;;4.56;100.00
70954;BME280;58618;47.490;8.736;2023-01-10T09:25:22;97354.53;;;4.53;100.00
70954;BME280;58618;47.490;8.736;2023-01-10T09:27:54;97353.91;;;4.58;100.00
70954;BME280;58618;47.490;8.736;2023-01-10T09:30:23;97353.75;;;4.53;100.00
70954;BME280;58618;47.490;8.736;2023-01-10T09:32:51;97352.78;;;4.54;100.00
70954;BME280;58618;47.490;8.736;2023-01-10T09:35:19;97358.09;;;4.52;100.00
70954;BME280;58618;47.490;8.736;2023-01-10T09:37:46;97357.50;;;4.50;100.00
70954;BME280;58618;47.490;8.736;2023-01-10T09:40:15;97359.84;;;4.52;100.00
70954;BME280;58618;47.490;8.736;2023-01-10T09:42:51;97366.88;;;4.56;100.00
70954;BME280;58618;47.490;8.736;2023-01-10T09:45:33;97364.91;;;4.58;99.54
70954;BME280;58618;47.490;8.736;2023-01-10T09:48:05;97365.88;;;4.57;100.00
70954;BME280;58618;47.490;8.736;2023-01-10T09:50:41;97370.00;;;4.58;99.75
70954;BME280;58618;47.490;8.736;2023-01-10T09:53:13;97364.91;;;4.58;99.98
70954;BME280;58618;47.490;8.736;2023-01-10T09:55:45;97366.47;;;4.59;98.13
70954;BME280;58618;47.490;8.736;2023-01-10T09:58:18;97371.91;;;4.63;99.19
70954;BME280;58618;47.490;8.736;2023-01-10T10:00:50;97361.34;;;4.59;96.62
70954;BME280;58618;47.490;8.736;2023-01-10T10:03:23;97375.06;;;4.65;99.44
70954;BME280;58618;47.490;8.736;2023-01-10T10:05:52;97376.75;;;4.71;97.49
70954;BME280;58618;47.490;8.736;2023-01-10T10:08:19;97393.44;;;4.74;98.33
70954;BME280;58618;47.490;8.736;2023-01-10T10:10:53;97390.88;;;4.74;98.23
70954;BME280;58618;47.490;8.736;2023-01-10T10:13:30;97393.66;;;4.90;95.74
70954;BME280;58618;47.490;8.736;2023-01-10T10:16:06;97393.34;;;5.17;95.34
70954;BME280;58618;47.490;8.736;2023-01-10T10:18:43;97389.09;;;5.40;94.29
70954;BME280;58618;47.490;8.736;2023-01-10T10:21:18;97393.16;;;5.60;91.24
70954;BME280;58618;47.490;8.736;2023-01-10T10:24:12;97389.41;;;5.74;92.17
70954;BME280;58618;47.490;8.736;2023-01-10T10:26:48;97391.53;;;5.77;91.63
70954;BME280;58618;47.490;8.736;2023-01-10T10:29:47;97378.47;;;5.67;91.59
70954;BME280;58618;47.490;8.736;2023-01-10T10:32:31;97388.22;;;5.46;91.31
70954;BME280;58618;47.490;8.736;2023-01-10T10:35:07;97379.72;;;5.34;91.46
70954;BME280;58618;47.490;8.736;2023-01-10T10:37:41;97371.50;;;5.32;92.58
70954;BME280;58618;47.490;8.736;2023-01-10T10:40:15;97388.47;;;5.57;92.95
70954;BME280;58618;47.490;8.736;2023-01-10T10:42:46;97385.28;;;5.73;92.70
70954;BME280;58618;47.490;8.736;2023-01-10T10:45:18;97377.69;;;5.96;90.44
70954;BME280;58618;47.490;8.736;2023-01-10T10:47:53;97378.03;;;6.23;90.05
70954;BME280;58618;47.490;8.736;2023-01-10T10:50:27;97376.72;;;6.32;87.38
70954;BME280;58618;47.490;8.736;2023-01-10T10:53:01;97367.91;;;6.40;88.87
70954;BME280;58618;47.490;8.736;2023-01-10T10:55:31;97366.78;;;6.47;87.22
70954;BME280;58618;47.490;8.736;2023-01-10T10:58:01;97364.53;;;6.51;86.67
70954;BME280;58618;47.490;8.736;2023-01-10T11:00:30;97362.53;;;6.53;85.87
70954;BME280;58618;47.490;8.736;2023-01-10T11:03:02;97366.56;;;6.60;86.77
70954;BME280;58618;47.490;8.736;2023-01-10T11:05:35;97359.06;;;6.59;84.85
70954;BME280;58618;47.490;8.736;2023-01-10T11:08:05;97355.53;;;6.60;87.00
70954;BME280;58618;47.490;8.736;2023-01-10T11:10:37;97357.31;;;6.59;84.77
70954;BME280;58618;47.490;8.736;2023-01-10T11:13:14;97351.38;;;6.59;86.87
70954;BME280;58618;47.490;8.736;2023-01-10T11:15:45;97342.56;;;6.66;87.48
70954;BME280;58618;47.490;8.736;2023-01-10T11:18:16;97344.91;;;6.68;86.52
70954;BME280;58618;47.490;8.736;2023-01-10T11:20:47;97350.94;;;6.62;83.66
70954;BME280;58618;47.490;8.736;2023-01-10T11:23:23;97354.00;;;6.87;86.22
70954;BME280;58618;47.490;8.736;2023-01-10T11:25:51;97345.69;;;7.08;84.34
70954;BME280;58618;47.490;8.736;2023-01-10T11:28:23;97345.69;;;7.08;83.41
70954;BME280;58618;47.490;8.736;2023-01-10T11:30:51;97355.50;;;7.11;82.03
70954;BME280;58618;47.490;8.736;2023-01-10T11:33:21;97342.09;;;7.09;84.26
70954;BME280;58618;47.490;8.736;2023-01-10T11:35:57;97335.53;;;7.13;83.93
70954;BME280;58618;47.490;8.736;2023-01-10T11:38:25;97332.56;;;7.21;81.12
70954;BME280;58618;47.490;8.736;2023-01-10T11:40:57;97336.16;;;7.20;78.95
70954;BME280;58618;47.490;8.736;2023-01-10T11:43:27;97341.53;;;7.19;80.06
70954;BME280;58618;47.490;8.736;2023-01-10T11:45:56;97340.88;;;7.12;81.82
70954;BME280;58618;47.490;8.736;2023-01-10T11:48:42;97346.59;;;7.02;80.97
70954;BME280;58618;47.490;8.736;2023-01-10T11:51:18;97341.28;;;6.92;79.24
70954;BME280;58618;47.490;8.736;2023-01-10T11:53:45;97335.75;;;6.72;80.23
70954;BME280;58618;47.490;8.736;2023-01-10T11:56:22;97328.66;;;6.51;80.59
70954;BME280;58618;47.490;8.736;2023-01-10T11:58:52;97330.22;;;6.52;81.80
70954;BME280;58618;47.490;8.736;2023-01-10T12:01:28;97329.78;;;6.55;83.53
70954;BME280;58618;47.490;8.736;2023-01-10T12:03:57;97314.63;;;6.42;80.95
70954;BME280;58618;47.490;8.736;2023-01-10T12:06:25;97322.44;;;6.47;80.09
70954;BME280;58618;47.490;8.736;2023-01-10T12:08:53;97321.84;;;6.56;81.02
70954;BME280;58618;47.490;8.736;2023-01-10T12:11:28;97314.25;;;6.61;79.25
70954;BME280;58618;47.490;8.736;2023-01-10T12:13:58;97324.66;;;6.55;78.99
70954;BME280;58618;47.490;8.736;2023-01-10T12:16:27;97321.06;;;6.56;79.96
70954;BME280;58618;47.490;8.736;2023-01-10T12:18:58;97316.41;;;6.53;79.90
70954;BME280;58618;47.490;8.736;2023-01-10T12:21:31;97319.53;;;6.55;79.40
70954;BME280;58618;47.490;8.736;2023-01-10T12:24:04;97317.06;;;6.60;80.57
70954;BME280;58618;47.490;8.736;2023-01-10T12:26:33;97304.97;;;6.72;77.85
70954;BME280;58618;47.490;8.736;2023-01-10T12:29:06;97306.47;;;6.96;79.64
70954;BME280;58618;47.490;8.736;2023-01-10T12:31:38;97312.66;;;7.12;76.16
70954;BME280;58618;47.490;8.736;2023-01-10T12:34:13;97298.28;;;7.11;76.60
70954;BME280;58618;47.490;8.736;2023-01-10T12:37:03;97300.78;;;7.22;78.50
70954;BME280;58618;47.490;8.736;2023-01-10T12:39:37;97294.41;;;7.25;79.04
70954;BME280;58618;47.490;8.736;2023-01-10T12:42:15;97288.97;;;7.21;76.04
70954;BME280;58618;47.490;8.736;2023-01-10T12:45:06;97286.97;;;7.24;76.33
70954;BME280;58618;47.490;8.736;2023-01-10T12:47:45;97285.84;;;7.19;76.80
70954;BME280;58618;47.490;8.736;2023-01-10T12:50:18;97289.44;;;7.18;74.70
70954;BME280;58618;47.490;8.736;2023-01-10T12:52:51;97278.34;;;7.01;74.13
70954;BME280;58618;47.490;8.736;2023-01-10T12:55:24;97271.50;;;6.90;73.92
70954;BME280;58618;47.490;8.736;2023-01-10T12:57:54;97261.88;;;6.69;76.53
70954;BME280;58618;47.490;8.736;2023-01-10T13:00:25;97261.13;;;6.57;75.77
70954;BME280;58618;47.490;8.736;2023-01-10T13:02:57;97268.72;;;6.52;76.25
70954;BME280;58618;47.490;8.736;2023-01-10T13:05:28;97281.13;;;6.43;75.33
70954;BME280;58618;47.490;8.736;2023-01-10T13:07:59;97284.16;;;6.28;74.07
70954;BME280;58618;47.490;8.736;2023-01-10T13:10:30;97281.38;;;6.18;73.79
70954;BME280;58618;47.490;8.736;2023-01-10T13:13:01;97266.25;;;6.05;74.87
70954;BME280;58618;47.490;8.736;2023-01-10T13:15:35;97266.25;;;5.93;75.60
70954;BME280;58618;47.490;8.736;2023-01-10T13:18:15;97270.47;;;5.88;75.20
70954;BME280;58618;47.490;8.736;2023-01-10T13:20:46;97270.22;;;5.78;75.14
70954;BME280;58618;47.490;8.736;2023-01-10T13:23:27;97266.34;;;5.64;74.64
70954;BME280;58618;47.490;8.736;2023-01-10T13:25:59;97267.44;;;5.56;76.17